LZKZ/KSC METAR and TAF weather

Enter ICAO airport designator
Station Type Date Time Source
LZKZ METAR 2024/04/17 19:00 UTC NOAA

LZKZ 171900Z 36014KT CAVOK 07/02 Q1004 NOSIG


Station Type Date Time Source
LZKZ Decoded METAR 2024/04/17 19:00 UTC NOAA

Kosice, Barca, Slovakia (LZKZ) 48-39-47N 021-14-28E
Apr 17, 2024 - 03:00 PM EDT / 2024.04.17 1900 UTC
Wind: from the N (360 degrees) at 16 MPH (14 KT):0
Visibility: greater than 7 mile(s):0
Temperature: 44 F (7 C)
Dew Point: 35 F (2 C)
Relative Humidity: 70%
Pressure (altimeter): 29.65 in. Hg (1004 hPa)
ob: LZKZ 171900Z 36014KT CAVOK 07/02 Q1004 NOSIG
cycle: 19

Station Type Date Time Source
LZKZ TAF 2024/04/17 18:12 UTC NOAA